createdAt,value
2022-09-20T00:01:17.991Z,6.82
2022-09-20T00:03:47.374Z,8.30
2022-09-20T00:06:17.719Z,5.25
2022-09-20T00:08:45.262Z,3.47
2022-09-20T00:11:16.766Z,4.15
2022-09-20T00:13:45.790Z,4.75
2022-09-20T00:16:16.962Z,8.57
2022-09-20T00:18:43.922Z,3.83
2022-09-20T00:21:18.189Z,9.68
2022-09-20T00:23:45.422Z,5.30
2022-09-20T00:26:13.822Z,5.63
2022-09-20T00:28:41.592Z,5.53
2022-09-20T00:31:08.424Z,7.35
2022-09-20T00:33:53.786Z,5.55
2022-09-20T00:36:20.426Z,6.22
2022-09-20T00:38:47.359Z,6.05
2022-09-20T00:41:14.218Z,11.43
2022-09-20T00:43:46.274Z,8.32
2022-09-20T00:46:36.715Z,5.57
2022-09-20T00:49:16.258Z,8.23
2022-09-20T00:51:50.554Z,7.07
2022-09-20T00:54:20.630Z,6.65
2022-09-20T00:56:48.450Z,4.88
2022-09-20T00:59:20.394Z,9.23
2022-09-20T01:01:59.266Z,7.30
2022-09-20T01:04:28.121Z,10.43
2022-09-20T01:06:58.542Z,11.60
2022-09-20T01:09:25.134Z,9.25
2022-09-20T01:11:55.567Z,11.38
2022-09-20T01:14:24.056Z,9.07
2022-09-20T01:16:55.280Z,9.63
2022-09-20T01:20:09.880Z,9.27
2022-09-20T01:23:07.269Z,8.20
2022-09-20T01:26:22.022Z,8.57
2022-09-20T01:29:01.206Z,9.15
2022-09-20T01:31:36.446Z,10.73
2022-09-20T01:34:15.318Z,10.05
2022-09-20T01:36:55.618Z,12.15
2022-09-20T01:39:52.136Z,13.98
2022-09-20T01:42:18.942Z,15.85
2022-09-20T01:45:11.006Z,9.35
2022-09-20T01:48:27.338Z,10.27
2022-09-20T01:51:49.239Z,8.90
2022-09-20T01:54:52.148Z,8.10
2022-09-20T01:57:50.226Z,10.05
2022-09-20T02:00:23.875Z,12.02
2022-09-20T02:03:22.066Z,15.82
2022-09-20T02:06:19.933Z,12.93
2022-09-20T02:09:20.424Z,9.52
2022-09-20T02:11:52.595Z,13.52
2022-09-20T02:14:41.667Z,8.75
2022-09-20T02:17:22.690Z,5.38
2022-09-20T02:20:01.923Z,9.90
2022-09-20T02:23:12.532Z,6.65
2022-09-20T02:26:06.040Z,6.55
2022-09-20T02:28:55.969Z,9.15
2022-09-20T02:32:01.924Z,7.70
2022-09-20T02:35:03.327Z,9.00
2022-09-20T02:37:54.627Z,18.30
2022-09-20T02:41:00.134Z,8.35
2022-09-20T02:44:10.871Z,6.75
2022-09-20T02:47:00.021Z,8.00
2022-09-20T02:49:29.947Z,8.90
2022-09-20T02:52:04.707Z,10.75
2022-09-20T02:54:51.658Z,8.45
2022-09-20T02:57:52.701Z,7.82
2022-09-20T03:00:54.682Z,9.90
2022-09-20T03:03:30.312Z,9.25
2022-09-20T03:06:15.376Z,10.70
2022-09-20T03:08:58.307Z,9.50
2022-09-20T03:11:32.634Z,9.25
2022-09-20T03:14:36.987Z,11.45
2022-09-20T03:17:27.459Z,7.78
2022-09-20T03:20:19.759Z,13.60
2022-09-20T03:23:24.137Z,15.55
2022-09-20T03:26:07.943Z,7.13
2022-09-20T03:29:48.143Z,12.00
2022-09-20T03:32:45.431Z,9.15
2022-09-20T03:35:31.259Z,14.02
2022-09-20T03:38:41.338Z,8.02
2022-09-20T03:41:29.223Z,9.38
2022-09-20T03:44:35.011Z,13.93
2022-09-20T03:47:37.351Z,8.38
2022-09-20T03:50:30.055Z,6.78
2022-09-20T03:53:20.035Z,11.50
2022-09-20T03:56:27.562Z,12.18
2022-09-20T03:59:24.866Z,8.00
2022-09-20T04:02:10.926Z,12.60
2022-09-20T04:05:03.799Z,7.88
2022-09-20T04:08:12.505Z,13.52
2022-09-20T04:11:17.087Z,9.82
2022-09-20T04:13:56.785Z,10.07
2022-09-20T04:16:58.651Z,9.10
2022-09-20T04:19:36.446Z,12.25
2022-09-20T04:22:05.509Z,8.63
2022-09-20T04:24:45.982Z,7.10
2022-09-20T04:27:15.459Z,9.48
2022-09-20T04:30:22.098Z,10.05
2022-09-20T04:33:05.387Z,10.57
2022-09-20T04:36:14.459Z,8.38
2022-09-20T04:38:41.683Z,8.35
2022-09-20T04:41:39.551Z,10.05
2022-09-20T04:44:38.771Z,15.57
2022-09-20T04:47:42.543Z,9.27
2022-09-20T04:50:48.566Z,7.70
2022-09-20T04:53:32.838Z,14.60
2022-09-20T04:56:41.400Z,11.15
2022-09-20T04:59:10.769Z,9.65
2022-09-20T05:01:55.599Z,13.52
2022-09-20T05:05:02.096Z,7.93
2022-09-20T05:07:52.536Z,7.97
2022-09-20T05:10:59.856Z,9.45
2022-09-20T05:14:12.871Z,9.52
2022-09-20T05:17:14.743Z,10.10
2022-09-20T05:20:06.164Z,15.35
2022-09-20T05:22:53.972Z,11.98
2022-09-20T05:25:51.976Z,16.83
2022-09-20T05:28:45.192Z,10.60
2022-09-20T05:31:38.117Z,11.27
2022-09-20T05:34:22.807Z,10.43
2022-09-20T05:37:10.538Z,14.30
2022-09-20T05:39:53.355Z,29.23
2022-09-20T05:42:43.873Z,38.17
2022-09-20T05:46:01.709Z,51.15
2022-09-20T05:49:07.063Z,23.92
2022-09-20T05:51:58.684Z,15.35
2022-09-20T05:54:47.793Z,11.38
2022-09-20T05:58:05.499Z,11.80
2022-09-20T06:01:07.489Z,10.57
2022-09-20T06:03:43.324Z,10.35
2022-09-20T06:06:22.991Z,14.80
2022-09-20T06:09:11.236Z,13.50
2022-09-20T06:12:16.935Z,13.10
2022-09-20T06:14:59.955Z,16.15
2022-09-20T06:17:48.399Z,14.73
2022-09-20T06:20:38.895Z,17.02
2022-09-20T06:23:06.030Z,12.98
2022-09-20T06:25:49.697Z,9.48
2022-09-20T06:28:27.603Z,14.20
2022-09-20T06:30:55.726Z,11.25
2022-09-20T06:33:25.619Z,11.93
2022-09-20T06:36:24.012Z,11.68
2022-09-20T06:39:41.523Z,14.25
2022-09-20T06:42:09.961Z,11.82
2022-09-20T06:44:41.188Z,14.13
2022-09-20T06:47:11.509Z,16.25
2022-09-20T06:49:39.574Z,11.88
2022-09-20T06:52:08.175Z,14.55
2022-09-20T06:54:34.953Z,12.48
2022-09-20T06:57:06.018Z,13.60
2022-09-20T06:59:32.993Z,12.45
2022-09-20T07:01:59.646Z,15.00
2022-09-20T07:04:26.834Z,7.88
2022-09-20T07:07:09.310Z,7.28
2022-09-20T07:09:36.447Z,11.13
2022-09-20T07:12:03.499Z,8.55
2022-09-20T07:14:30.119Z,6.88
2022-09-20T07:17:00.816Z,7.63
2022-09-20T07:19:27.450Z,8.27
2022-09-20T07:21:54.238Z,5.47
2022-09-20T07:24:20.931Z,6.43
2022-09-20T07:27:01.780Z,9.23
2022-09-20T07:29:29.754Z,9.30
2022-09-20T07:31:57.297Z,7.57
2022-09-20T07:34:24.277Z,11.38
2022-09-20T07:36:51.245Z,6.38
2022-09-20T07:39:18.578Z,5.25
2022-09-20T07:41:50.520Z,5.00
2022-09-20T07:44:21.288Z,8.63
2022-09-20T07:46:57.972Z,7.32
2022-09-20T07:49:26.413Z,8.25
2022-09-20T07:51:53.912Z,5.35
2022-09-20T07:54:21.243Z,6.85
2022-09-20T07:56:48.462Z,8.45
2022-09-20T07:59:15.924Z,6.38
2022-09-20T08:01:43.228Z,8.93
2022-09-20T08:04:10.420Z,9.48
2022-09-20T08:06:39.298Z,7.50
2022-09-20T08:09:11.097Z,8.77
2022-09-20T08:11:39.350Z,11.02
2022-09-20T08:14:08.563Z,6.03
2022-09-20T08:16:42.827Z,8.25
2022-09-20T08:19:17.186Z,8.88
2022-09-20T08:21:44.682Z,7.18
2022-09-20T08:24:11.648Z,6.57
2022-09-20T08:26:38.353Z,6.93
2022-09-20T08:29:06.141Z,6.75
2022-09-20T08:31:37.207Z,9.50
2022-09-20T08:34:06.585Z,8.55
2022-09-20T08:36:37.241Z,8.43
2022-09-20T08:42:20.345Z,6.13
2022-09-20T08:45:00.078Z,10.20
2022-09-20T08:47:31.555Z,7.13
2022-09-20T08:50:00.952Z,9.43
2022-09-20T08:52:39.403Z,6.35
2022-09-20T08:55:36.524Z,8.05
2022-09-20T08:58:08.220Z,9.00
2022-09-20T09:00:38.167Z,5.97
2022-09-20T09:03:17.100Z,5.38
2022-09-20T09:05:53.473Z,5.57
2022-09-20T09:08:28.443Z,8.13
2022-09-20T09:11:09.848Z,8.07
2022-09-20T09:14:41.448Z,5.20
2022-09-20T09:17:11.936Z,5.30
2022-09-20T09:19:57.095Z,5.22
2022-09-20T09:22:38.160Z,9.38
2022-09-20T09:25:19.827Z,7.35
2022-09-20T09:28:14.213Z,6.65
2022-09-20T09:30:44.210Z,6.20
2022-09-20T09:33:19.950Z,5.28
2022-09-20T09:36:14.894Z,6.93
2022-09-20T09:38:46.998Z,9.00
2022-09-20T09:41:35.562Z,5.80
2022-09-20T09:44:24.536Z,7.75
2022-09-20T09:47:00.308Z,6.03
2022-09-20T09:49:34.038Z,8.20
2022-09-20T09:52:24.502Z,7.60
2022-09-20T09:54:55.030Z,8.20
2022-09-20T09:57:59.647Z,6.97
2022-09-20T10:00:27.155Z,5.40
2022-09-20T10:03:23.337Z,3.50
2022-09-20T10:06:36.925Z,6.32
2022-09-20T10:09:33.640Z,8.02
2022-09-20T10:12:20.600Z,10.48
2022-09-20T10:15:18.304Z,4.70
2022-09-20T10:18:12.129Z,8.40
2022-09-20T10:21:08.314Z,6.38
2022-09-20T10:24:02.494Z,6.30
2022-09-20T10:26:45.734Z,5.97
2022-09-20T10:29:41.774Z,6.80
2022-09-20T10:32:55.743Z,8.95
2022-09-20T10:35:52.363Z,12.02
2022-09-20T10:38:40.993Z,9.00
2022-09-20T10:41:39.436Z,8.93
2022-09-20T10:44:19.226Z,7.15
2022-09-20T10:47:14.027Z,10.55
2022-09-20T10:49:41.914Z,9.10
2022-09-20T10:52:59.640Z,7.00
2022-09-20T10:55:49.476Z,6.35
2022-09-20T10:58:40.192Z,6.28
2022-09-20T11:01:29.917Z,4.13
2022-09-20T11:04:17.453Z,3.65
2022-09-20T11:07:07.303Z,6.78
2022-09-20T11:09:41.791Z,5.55
2022-09-20T11:12:39.417Z,6.43
2022-09-20T11:15:19.307Z,5.78
2022-09-20T11:18:23.440Z,6.15
2022-09-20T11:21:19.934Z,6.05
2022-09-20T11:24:20.387Z,4.18
2022-09-20T11:26:55.778Z,3.08
2022-09-20T11:29:32.238Z,4.70
2022-09-20T11:32:21.888Z,11.25
2022-09-20T11:35:02.122Z,6.50
2022-09-20T11:38:03.506Z,8.02
2022-09-20T11:40:37.474Z,4.63
2022-09-20T11:43:08.207Z,3.38
2022-09-20T11:45:38.857Z,4.03
2022-09-20T11:48:23.532Z,2.88
2022-09-20T11:51:12.896Z,3.00
2022-09-20T11:54:19.340Z,2.42
2022-09-20T11:56:56.557Z,5.72
2022-09-20T11:59:30.361Z,5.80
2022-09-20T12:02:00.228Z,5.03
2022-09-20T12:04:33.724Z,5.30
2022-09-20T12:07:18.593Z,4.55
2022-09-20T12:09:54.321Z,6.78
2022-09-20T12:12:41.848Z,4.68
2022-09-20T12:15:36.924Z,5.50
2022-09-20T12:18:12.304Z,4.63
2022-09-20T12:20:38.882Z,3.30
2022-09-20T12:23:40.226Z,2.40
2022-09-20T12:26:41.151Z,4.20
2022-09-20T12:29:34.005Z,4.10
2022-09-20T12:32:03.135Z,2.60
2022-09-20T12:34:36.813Z,2.42
2022-09-20T12:37:04.576Z,5.68
2022-09-20T12:39:38.928Z,2.30
2022-09-20T12:42:11.636Z,3.10
2022-09-20T12:44:49.127Z,1.65
2022-09-20T12:47:22.392Z,1.85
2022-09-20T12:50:09.809Z,1.75
2022-09-20T12:52:53.585Z,2.30
2022-09-20T12:55:32.703Z,2.67
2022-09-20T12:58:32.227Z,7.10
2022-09-20T13:01:04.899Z,4.15
2022-09-20T13:03:38.391Z,4.63
2022-09-20T13:06:14.665Z,6.38
2022-09-20T13:08:52.294Z,2.47
2022-09-20T13:11:40.225Z,6.32
2022-09-20T13:14:23.483Z,2.53
2022-09-20T13:17:20.951Z,2.88
2022-09-20T13:19:49.919Z,4.13
2022-09-20T13:22:33.121Z,4.20
2022-09-20T13:25:04.332Z,7.68
2022-09-20T13:27:51.459Z,4.13
2022-09-20T13:30:35.137Z,4.18
2022-09-20T13:33:23.802Z,5.22
2022-09-20T13:35:56.826Z,2.92
2022-09-20T13:38:29.815Z,4.88
2022-09-20T13:41:12.839Z,4.47
2022-09-20T13:43:46.277Z,3.88
2022-09-20T13:46:22.073Z,3.13
2022-09-20T13:49:12.613Z,4.20
2022-09-20T13:51:39.724Z,2.83
2022-09-20T13:54:31.091Z,3.30
2022-09-20T13:57:05.068Z,3.00
2022-09-20T13:59:41.558Z,5.13
2022-09-20T14:02:24.522Z,6.70
2022-09-20T14:04:55.976Z,2.33
2022-09-20T14:07:28.008Z,6.55
2022-09-20T14:09:56.528Z,8.63
2022-09-20T14:12:25.041Z,3.33
2022-09-20T14:14:52.495Z,3.90
2022-09-20T14:17:23.018Z,5.72
2022-09-20T14:19:54.333Z,2.58
2022-09-20T14:22:27.185Z,4.35
2022-09-20T14:25:12.213Z,3.45
2022-09-20T14:27:38.945Z,4.07
2022-09-20T14:30:07.351Z,2.58
2022-09-20T14:32:41.992Z,3.78
2022-09-20T14:35:18.424Z,3.95
2022-09-20T14:38:10.139Z,4.30
2022-09-20T14:40:48.397Z,3.38
2022-09-20T14:43:33.713Z,3.17
2022-09-20T14:46:04.687Z,2.03
2022-09-20T14:48:42.855Z,3.65
2022-09-20T14:51:23.257Z,2.33
2022-09-20T14:54:12.765Z,2.92
2022-09-20T14:56:47.613Z,4.30
2022-09-20T14:59:17.165Z,1.95
2022-09-20T15:01:59.215Z,2.75
2022-09-20T15:04:28.398Z,2.85
2022-09-20T15:06:56.914Z,2.78
2022-09-20T15:09:23.722Z,3.25
2022-09-20T15:12:04.491Z,2.97
2022-09-20T15:14:36.524Z,5.55
2022-09-20T15:17:04.477Z,2.47
2022-09-20T15:19:31.034Z,3.85
2022-09-20T15:21:57.718Z,4.07
2022-09-20T15:24:24.542Z,5.20
2022-09-20T15:26:51.096Z,2.60
2022-09-20T15:29:18.658Z,3.03
2022-09-20T15:31:48.170Z,3.38
2022-09-20T15:34:16.034Z,3.70
2022-09-20T15:36:43.546Z,6.25
2022-09-20T15:39:10.513Z,8.18
2022-09-20T15:41:37.925Z,6.00
2022-09-20T15:44:05.389Z,4.15
2022-09-20T15:46:32.269Z,2.17
2022-09-20T15:49:03.772Z,4.88
2022-09-20T15:51:30.707Z,3.33
2022-09-20T15:54:07.433Z,1.98
2022-09-20T15:56:37.152Z,3.13
2022-09-20T15:59:06.857Z,3.85
2022-09-20T16:01:42.274Z,1.77
2022-09-20T16:04:11.263Z,3.08
2022-09-20T16:06:41.270Z,1.48
2022-09-20T16:09:08.961Z,3.03
2022-09-20T16:11:36.778Z,3.38
2022-09-20T16:14:04.152Z,3.03
2022-09-20T16:16:37.436Z,3.08
2022-09-20T16:19:20.445Z,3.22
2022-09-20T16:21:55.070Z,3.58
2022-09-20T16:24:26.803Z,3.92
2022-09-20T16:26:54.050Z,3.22
2022-09-20T16:29:22.029Z,4.70
2022-09-20T16:31:53.700Z,6.85
2022-09-20T16:34:21.526Z,2.28
2022-09-20T16:36:50.834Z,1.85
2022-09-20T16:39:19.534Z,1.10
2022-09-20T16:41:48.097Z,1.35
2022-09-20T16:44:15.672Z,3.92
2022-09-20T16:46:42.247Z,4.03
2022-09-20T16:49:12.347Z,3.83
2022-09-20T16:51:43.335Z,4.60
2022-09-20T16:54:15.787Z,3.95
2022-09-20T16:56:46.279Z,3.45
2022-09-20T16:59:15.653Z,4.22
2022-09-20T17:01:43.980Z,7.38
2022-09-20T17:04:14.172Z,4.20
2022-09-20T17:06:43.281Z,2.33
2022-09-20T17:09:10.920Z,1.75
2022-09-20T17:11:41.667Z,1.95
2022-09-20T17:14:09.460Z,2.78
2022-09-20T17:16:39.576Z,3.92
2022-09-20T17:19:10.883Z,4.18
2022-09-20T17:21:43.283Z,3.38
2022-09-20T17:24:10.176Z,3.22
2022-09-20T17:26:40.117Z,2.17
2022-09-20T17:29:10.196Z,8.90
2022-09-20T17:31:41.566Z,2.70
2022-09-20T17:34:11.424Z,3.72
2022-09-20T17:36:43.640Z,2.25
2022-09-20T17:39:13.099Z,2.88
2022-09-20T17:41:46.467Z,4.22
2022-09-20T17:44:14.036Z,2.40
2022-09-20T17:46:43.796Z,2.13
2022-09-20T17:49:18.109Z,2.15
2022-09-20T17:51:55.455Z,3.00
2022-09-20T17:54:24.204Z,2.65
2022-09-20T17:56:53.428Z,2.65
2022-09-20T17:59:20.923Z,7.88
2022-09-20T18:01:50.889Z,3.53
2022-09-20T18:04:18.353Z,8.13
2022-09-20T18:06:48.478Z,3.45
2022-09-20T18:09:21.632Z,2.85
2022-09-20T18:11:53.616Z,3.33
2022-09-20T18:14:23.957Z,2.72
2022-09-20T18:16:53.565Z,2.60
2022-09-20T18:19:22.404Z,6.18
2022-09-20T18:21:49.121Z,1.65
2022-09-20T18:24:15.872Z,3.55
2022-09-20T18:26:42.492Z,4.18
2022-09-20T18:29:14.195Z,3.97
2022-09-20T18:31:45.963Z,5.85
2022-09-20T18:34:19.133Z,4.72
2022-09-20T18:36:57.034Z,3.95
2022-09-20T18:39:26.479Z,2.95
2022-09-20T18:41:53.627Z,1.85
2022-09-20T18:44:22.337Z,2.47
2022-09-20T18:46:50.961Z,1.83
2022-09-20T18:49:17.725Z,1.65
2022-09-20T18:51:45.358Z,2.70
2022-09-20T18:54:12.303Z,1.80
2022-09-20T18:56:46.985Z,2.17
2022-09-20T18:59:20.854Z,5.25
2022-09-20T19:02:17.248Z,5.78
2022-09-20T19:05:06.621Z,3.13
2022-09-20T19:07:39.243Z,2.80
2022-09-20T19:10:05.799Z,1.63
2022-09-20T19:12:59.840Z,2.92
2022-09-20T19:16:07.185Z,1.80
2022-09-20T19:19:26.601Z,4.45
2022-09-20T19:22:18.502Z,4.00
2022-09-20T19:25:13.961Z,7.93
2022-09-20T19:27:41.314Z,2.83
2022-09-20T19:30:13.158Z,5.05
2022-09-20T19:32:40.199Z,2.10
2022-09-20T19:35:19.463Z,5.82
2022-09-20T19:38:15.370Z,2.97
2022-09-20T19:41:08.786Z,2.58
2022-09-20T19:44:18.181Z,3.38
2022-09-20T19:47:07.132Z,5.32
2022-09-20T19:49:55.640Z,2.35
2022-09-20T19:52:23.734Z,2.90
2022-09-20T19:54:51.212Z,2.50
2022-09-20T19:57:42.940Z,3.67
2022-09-20T20:00:20.208Z,6.70
2022-09-20T20:02:47.656Z,1.17
2022-09-20T20:05:18.488Z,5.43
2022-09-20T20:08:18.693Z,7.07
2022-09-20T20:11:03.529Z,3.88
2022-09-20T20:14:12.333Z,4.35
2022-09-20T20:17:05.134Z,3.95
2022-09-20T20:20:07.694Z,2.20
2022-09-20T20:23:28.326Z,3.90
2022-09-20T20:26:19.230Z,44.60
2022-09-20T20:28:45.915Z,11.68
2022-09-20T20:31:13.043Z,4.20
2022-09-20T20:33:39.914Z,4.75
2022-09-20T20:36:11.842Z,4.20
2022-09-20T20:38:46.235Z,2.13
2022-09-20T20:41:15.686Z,1.83
2022-09-20T20:43:45.186Z,2.33
2022-09-20T20:46:15.429Z,4.00
2022-09-20T20:48:42.564Z,2.63
2022-09-20T20:51:12.652Z,4.55
2022-09-20T20:53:46.885Z,3.58
2022-09-20T20:56:28.433Z,2.88
2022-09-20T20:59:00.358Z,3.85
2022-09-20T21:01:42.622Z,3.25
2022-09-20T21:04:11.240Z,4.40
2022-09-20T21:06:40.641Z,5.38
2022-09-20T21:09:09.536Z,5.47
2022-09-20T21:11:40.168Z,4.18
2022-09-20T21:14:07.262Z,3.47
2022-09-20T21:16:37.345Z,2.85
2022-09-20T21:19:05.814Z,3.80
2022-09-20T21:21:36.108Z,4.63
2022-09-20T21:24:06.197Z,5.35
2022-09-20T21:26:35.202Z,3.78
2022-09-20T21:29:05.408Z,6.05
2022-09-20T21:31:36.016Z,3.75
2022-09-20T21:34:06.568Z,4.13
2022-09-20T21:36:34.728Z,4.43
2022-09-20T21:39:01.392Z,4.45
2022-09-20T21:41:31.468Z,3.53
2022-09-20T21:44:00.944Z,6.40
2022-09-20T21:46:42.015Z,4.00
2022-09-20T21:49:11.919Z,3.03
2022-09-20T21:51:41.316Z,5.18
2022-09-20T21:54:08.366Z,2.80
2022-09-20T21:56:37.499Z,4.82
2022-09-20T21:59:06.113Z,3.05
2022-09-20T22:01:35.910Z,2.28
2022-09-20T22:04:11.567Z,4.32
2022-09-20T22:06:45.275Z,3.33
2022-09-20T22:09:17.109Z,3.70
2022-09-20T22:11:46.915Z,3.03
2022-09-20T22:14:16.353Z,3.35
2022-09-20T22:16:45.301Z,2.28
2022-09-20T22:19:16.304Z,6.85
2022-09-20T22:21:47.716Z,5.10
2022-09-20T22:24:16.060Z,4.32
2022-09-20T22:26:46.491Z,4.63
2022-09-20T22:29:14.368Z,3.67
2022-09-20T22:31:46.555Z,3.17
2022-09-20T22:34:31.124Z,4.78
2022-09-20T22:36:57.720Z,2.25
2022-09-20T22:39:24.308Z,5.55
2022-09-20T22:41:51.292Z,2.72
2022-09-20T22:44:17.884Z,5.82
2022-09-20T22:46:44.459Z,6.45
2022-09-20T22:49:11.048Z,5.40
2022-09-20T22:51:38.175Z,7.72
2022-09-20T22:54:08.378Z,4.07
2022-09-20T22:56:36.189Z,5.30
2022-09-20T22:59:15.040Z,6.40
2022-09-20T23:01:46.896Z,2.58
2022-09-20T23:04:18.793Z,4.88
2022-09-20T23:06:54.680Z,2.97
2022-09-20T23:09:24.602Z,6.47
2022-09-20T23:11:51.343Z,8.65
2022-09-20T23:14:20.902Z,4.38
2022-09-20T23:16:48.432Z,5.53
2022-09-20T23:19:15.992Z,4.70
2022-09-20T23:21:43.603Z,4.43
2022-09-20T23:24:13.268Z,3.60
2022-09-20T23:26:41.587Z,3.70
2022-09-20T23:29:12.344Z,4.18
2022-09-20T23:31:45.580Z,2.67
2022-09-20T23:34:14.162Z,4.03
2022-09-20T23:36:42.336Z,2.10
2022-09-20T23:39:10.484Z,2.95
2022-09-20T23:41:37.939Z,6.82
2022-09-20T23:44:06.399Z,4.88
2022-09-20T23:46:33.922Z,3.75
2022-09-20T23:49:01.024Z,4.28
2022-09-20T23:51:29.288Z,2.85
2022-09-20T23:53:56.088Z,4.65
2022-09-20T23:56:23.620Z,5.40
2022-09-20T23:58:50.987Z,1.95
